Warnow Moon — A8VX3 — position and weather

sailwx.info

Track history (hours):
 
Tides and Currents Weather Stations Pressure Air Temp Water Temp Dewpoint Dewpoint Depression Visibility Wind Speed Wind Dir Waves Ship Positions

Warnow Moon

Last reported at 2016-Jun-11 05:29 UTC. Time now 2016-Jul-01 06:25 UTC.
Position N 22°07' E 114°17'.
Warning: this ship's position is 20 days out of date.

Length 180 m; draft 6.2 m.

Type: Cargo ship. MMSI: 636016909.

Date/timePositionNaut miles runAvg speedWind from/ knotsBaromVisibWave heightAir tempDewpointWater temp
2016-Jun-11 05:29N 22°07' E 114°17'2613.3
2016-Jun-11 03:33N 22°06' E 113°49'8 8.0
2016-Jun-11 02:33N 22°14' E 113°48'1211.3
2016-Jun-11 01:29N 22°26' E 113°45'44 1.1
2016-Jun-09 10:06N 23°06' E 113°26'0 0.0
2016-Jun-09 09:30N 23°06' E 113°26'0 0.0
2016-Jun-09 08:30N 23°06' E 113°26'0 0.0
2016-Jun-09 07:24N 23°06' E 113°26'0 0.0
2016-Jun-09 06:18N 23°06' E 113°26'0 0.0
2016-Jun-09 05:30N 23°06' E 113°26'0 0.0
2016-Jun-09 04:30N 23°06' E 113°26'0 0.0
2016-Jun-09 03:24N 23°06' E 113°26'0 0.0
2016-Jun-09 02:24N 23°06' E 113°26'0 0.0
2016-Jun-09 00:30N 23°06' E 113°26'0 0.0
2016-Jun-08 22:12N 23°06' E 113°26'0 0.0
2016-Jun-08 20:30N 23°06' E 113°26'0 0.0
2016-Jun-08 19:06N 23°06' E 113°26'0 0.0
2016-Jun-08 18:30N 23°06' E 113°26'0 0.0
2016-Jun-08 17:30N 23°06' E 113°26'0 0.0
2016-Jun-08 16:18N 23°06' E 113°26'0 0.0
2016-Jun-08 15:30N 23°06' E 113°26'0 0.0
2016-Jun-08 14:30N 23°06' E 113°26'0 0.0
2016-Jun-08 13:30N 23°06' E 113°26'0 0.0
2016-Jun-08 11:30N 23°06' E 113°26'0 0.0
2016-Jun-08 10:30N 23°06' E 113°26'0 0.0
2016-Jun-08 09:24N 23°06' E 113°26'0 0.0
2016-Jun-08 08:30N 23°06' E 113°26'0 0.0
2016-Jun-08 07:24N 23°06' E 113°26'0 0.0
2016-Jun-08 06:30N 23°06' E 113°26'0 0.0
2016-Jun-08 05:20N 23°06' E 113°26'2 2.6
2016-Jun-08 04:33N 23°05' E 113°28'8 8.0
2016-Jun-08 03:33N 22°58' E 113°32'9 9.4
2016-Jun-08 02:33N 22°49' E 113°36'2911.6
2016-Jun-08 00:04N 22°22' E 113°47'612.2
2016-Jun-07 23:33N 22°16' E 113°48'10 9.6
2016-Jun-07 22:32N 22°06' E 113°49'  
2016-Jun-05 13:20N 22°03' E 114°05'13 0.5
2016-Jun-04 12:17N 22°16' E 114°06'15 8.4
2016-Jun-04 10:33N 22°24' E 113°53'4 0.4
2016-Jun-03 22:33N 22°29' E 113°52'30 8.9
2016-Jun-03 19:08N 22°06' E 114°14'23 2.7
2016-Jun-03 10:34N 22°06' E 113°49'9 9.3
2016-Jun-03 09:33N 22°16' E 113°48'2512.4
2016-Jun-03 07:30N 22°40' E 113°41'1010.6
2016-Jun-03 06:32N 22°49' E 113°36'10 9.6
2016-Jun-03 05:32N 22°58' E 113°32'0 0.4
2016-Jun-03 04:24N 22°59' E 113°33'0 0.1
2016-Jun-03 03:30N 22°59' E 113°33'0 0.0
2016-Jun-03 02:30N 22°59' E 113°33'0 0.0
2016-Jun-03 01:24N 22°59' E 113°33'0 0.0
2016-Jun-03 00:24N 22°59' E 113°33'0 0.0
2016-Jun-02 23:12N 22°59' E 113°33'0 0.0
2016-Jun-02 21:24N 22°59' E 113°33'0 0.0
2016-Jun-02 20:18N 22°59' E 113°33'0 0.0
2016-Jun-02 19:12N 22°59' E 113°33'0 0.0
2016-Jun-02 18:18N 22°59' E 113°33'0 0.0
2016-Jun-02 17:30N 22°59' E 113°33'0 0.0
2016-Jun-02 12:06N 22°59' E 113°33'0 0.0
2016-Jun-02 06:30N 22°59' E 113°33'0 0.0
2016-Jun-02 05:24N 22°59' E 113°33'0 0.0
2016-Jun-02 03:12N 22°59' E 113°33'0 0.0
2016-Jun-02 02:18N 22°59' E 113°33'0 0.1
2016-Jun-02 01:18N 22°59' E 113°33'0 0.1
2016-Jun-02 00:30N 22°59' E 113°33'0 0.0
2016-Jun-01 23:30N 22°59' E 113°33'0 0.0
2016-Jun-01 22:30N 22°59' E 113°33'0 0.0
2016-Jun-01 21:24N 22°59' E 113°33'0 0.0
2016-Jun-01 20:30N 22°59' E 113°33'0 0.0
2016-Jun-01 19:30N 22°59' E 113°33'0 0.0
2016-Jun-01 18:30N 22°59' E 113°33'0 0.0
2016-Jun-01 17:30N 22°59' E 113°33'0 0.0
2016-Jun-01 16:30N 22°59' E 113°33'0 0.0
2016-Jun-01 15:18N 22°59' E 113°33'0 0.1
2016-Jun-01 14:30N 22°59' E 113°33'0 0.0
2016-Jun-01 10:24N 22°59' E 113°33'0 0.0
2016-Jun-01 09:24N 22°59' E 113°33'0 0.0
2016-Jun-01 08:18N 22°59' E 113°33'0 0.1
2016-Jun-01 07:24N 22°59' E 113°33'0 0.1
2016-Jun-01 06:24N 22°59' E 113°33'  
Track history (hours):
 
Tides and Currents Weather Stations Pressure Air Temp Water Temp Dewpoint Dewpoint Depression Visibility Wind Speed Wind Dir Waves Ship Positions

Warnow Moon

Last reported at 2016-Jun-11 05:29 UTC. Time now 2016-Jul-01 06:25 UTC.
Position N 22°07' E 114°17'.
Warning: this ship's position is 20 days out of date.

Length 180 m; draft 6.2 m.

Type: Cargo ship. MMSI: 636016909.

Date/timePositionNaut miles runAvg speedWind from/ knotsBaromVisibWave heightAir tempDewpointWater temp
2016-Jun-11 05:29N 22°07' E 114°17'2613.3
2016-Jun-11 03:33N 22°06' E 113°49'8 8.0
2016-Jun-11 02:33N 22°14' E 113°48'1211.3
2016-Jun-11 01:29N 22°26' E 113°45'44 1.1
2016-Jun-09 10:06N 23°06' E 113°26'0 0.0
2016-Jun-09 09:30N 23°06' E 113°26'0 0.0
2016-Jun-09 08:30N 23°06' E 113°26'0 0.0
2016-Jun-09 07:24N 23°06' E 113°26'0 0.0
2016-Jun-09 06:18N 23°06' E 113°26'0 0.0
2016-Jun-09 05:30N 23°06' E 113°26'0 0.0
2016-Jun-09 04:30N 23°06' E 113°26'0 0.0
2016-Jun-09 03:24N 23°06' E 113°26'0 0.0
2016-Jun-09 02:24N 23°06' E 113°26'0 0.0
2016-Jun-09 00:30N 23°06' E 113°26'0 0.0
2016-Jun-08 22:12N 23°06' E 113°26'0 0.0
2016-Jun-08 20:30N 23°06' E 113°26'0 0.0
2016-Jun-08 19:06N 23°06' E 113°26'0 0.0
2016-Jun-08 18:30N 23°06' E 113°26'0 0.0
2016-Jun-08 17:30N 23°06' E 113°26'0 0.0
2016-Jun-08 16:18N 23°06' E 113°26'0 0.0
2016-Jun-08 15:30N 23°06' E 113°26'0 0.0
2016-Jun-08 14:30N 23°06' E 113°26'0 0.0
2016-Jun-08 13:30N 23°06' E 113°26'0 0.0
2016-Jun-08 11:30N 23°06' E 113°26'0 0.0
2016-Jun-08 10:30N 23°06' E 113°26'0 0.0
2016-Jun-08 09:24N 23°06' E 113°26'0 0.0
2016-Jun-08 08:30N 23°06' E 113°26'0 0.0
2016-Jun-08 07:24N 23°06' E 113°26'0 0.0
2016-Jun-08 06:30N 23°06' E 113°26'0 0.0
2016-Jun-08 05:20N 23°06' E 113°26'2 2.6
2016-Jun-08 04:33N 23°05' E 113°28'8 8.0
2016-Jun-08 03:33N 22°58' E 113°32'9 9.4
2016-Jun-08 02:33N 22°49' E 113°36'2911.6
2016-Jun-08 00:04N 22°22' E 113°47'612.2
2016-Jun-07 23:33N 22°16' E 113°48'10 9.6
2016-Jun-07 22:32N 22°06' E 113°49'  
2016-Jun-05 13:20N 22°03' E 114°05'13 0.5
2016-Jun-04 12:17N 22°16' E 114°06'15 8.4
2016-Jun-04 10:33N 22°24' E 113°53'4 0.4
2016-Jun-03 22:33N 22°29' E 113°52'30 8.9
2016-Jun-03 19:08N 22°06' E 114°14'23 2.7
2016-Jun-03 10:34N 22°06' E 113°49'9 9.3
2016-Jun-03 09:33N 22°16' E 113°48'2512.4
2016-Jun-03 07:30N 22°40' E 113°41'1010.6
2016-Jun-03 06:32N 22°49' E 113°36'10 9.6
2016-Jun-03 05:32N 22°58' E 113°32'0 0.4
2016-Jun-03 04:24N 22°59' E 113°33'0 0.1
2016-Jun-03 03:30N 22°59' E 113°33'0 0.0
2016-Jun-03 02:30N 22°59' E 113°33'0 0.0
2016-Jun-03 01:24N 22°59' E 113°33'0 0.0
2016-Jun-03 00:24N 22°59' E 113°33'0 0.0
2016-Jun-02 23:12N 22°59' E 113°33'0 0.0
2016-Jun-02 21:24N 22°59' E 113°33'0 0.0
2016-Jun-02 20:18N 22°59' E 113°33'0 0.0
2016-Jun-02 19:12N 22°59' E 113°33'0 0.0
2016-Jun-02 18:18N 22°59' E 113°33'0 0.0
2016-Jun-02 17:30N 22°59' E 113°33'0 0.0
2016-Jun-02 12:06N 22°59' E 113°33'0 0.0
2016-Jun-02 06:30N 22°59' E 113°33'0 0.0
2016-Jun-02 05:24N 22°59' E 113°33'0 0.0
2016-Jun-02 03:12N 22°59' E 113°33'0 0.0
2016-Jun-02 02:18N 22°59' E 113°33'0 0.1
2016-Jun-02 01:18N 22°59' E 113°33'0 0.1
2016-Jun-02 00:30N 22°59' E 113°33'0 0.0
2016-Jun-01 23:30N 22°59' E 113°33'0 0.0
2016-Jun-01 22:30N 22°59' E 113°33'0 0.0
2016-Jun-01 21:24N 22°59' E 113°33'0 0.0
2016-Jun-01 20:30N 22°59' E 113°33'0 0.0
2016-Jun-01 19:30N 22°59' E 113°33'0 0.0
2016-Jun-01 18:30N 22°59' E 113°33'0 0.0
2016-Jun-01 17:30N 22°59' E 113°33'0 0.0
2016-Jun-01 16:30N 22°59' E 113°33'0 0.0
2016-Jun-01 15:18N 22°59' E 113°33'0 0.1
2016-Jun-01 14:30N 22°59' E 113°33'0 0.0
2016-Jun-01 10:24N 22°59' E 113°33'0 0.0
2016-Jun-01 09:24N 22°59' E 113°33'0 0.0
2016-Jun-01 08:18N 22°59' E 113°33'0 0.1
2016-Jun-01 07:24N 22°59' E 113°33'0 0.1
2016-Jun-01 06:24N 22°59' E 113°33'  

Dump ship's entire track history